Time;durP1;ratioP1;P1;durP2;ratioP2;P2;SDS_P1;SDS_P2;PMS_P1;PMS_P2;Temp;Humidity;BMP_temperature;BMP_pressure;BME280_temperature;BME280_humidity;BME280_pressure;Samples;Min_cycle;Max_cycle;Signal;HPM_P1;HPM_P2
2024/01/21 00:00:24;;;;;;;10.93;5.05;;;;;;;3.41;44.61;102525.31;5060786;28;20048;-78
2024/01/21 00:03:18;;;;;;;7.60;4.50;;;;;;;3.29;43.96;102515.53;5057982;28;20042;-78
2024/01/21 00:06:13;;;;;;;12.27;5.30;;;;;;;3.32;43.02;102518.59;5058031;28;20087;-78
2024/01/21 00:09:18;;;;;;;12.20;5.82;;;;;;;3.39;42.63;102510.47;5059308;28;20052;-78
2024/01/21 00:12:13;;;;;;;15.52;7.10;;;;;;;3.30;42.47;102509.13;5056763;28;20057;-78
2024/01/21 00:15:07;;;;;;;8.75;4.72;;;;;;;3.28;43.57;102516.56;5059667;28;20052;-78
2024/01/21 00:18:02;;;;;;;10.70;5.90;;;;;;;3.24;42.83;102521.56;5058079;28;20048;-78
2024/01/21 00:20:57;;;;;;;13.52;6.82;;;;;;;3.29;42.20;102519.03;5061429;28;20044;-79
2024/01/21 00:23:52;;;;;;;8.40;4.60;;;;;;;3.18;42.98;102518.94;5058026;28;20059;-77
2024/01/21 00:26:44;;;;;;;6.43;4.23;;;;;;;3.20;43.87;102522.25;5056427;28;20052;-78
2024/01/21 00:29:39;;;;;;;12.32;6.40;;;;;;;3.34;43.37;102521.06;5044888;28;20418;-79
2024/01/21 00:32:31;;;;;;;7.90;5.65;;;;;;;3.35;42.90;102525.41;5055285;28;20040;-78
2024/01/21 00:35:26;;;;;;;9.10;5.05;;;;;;;3.19;43.49;102513.34;5059559;28;20048;-79
2024/01/21 00:38:18;;;;;;;18.10;7.82;;;;;;;3.03;44.00;102513.91;5059380;28;20055;-79
2024/01/21 00:41:16;;;;;;;12.02;6.53;;;;;;;3.09;43.29;102504.97;5057137;28;20051;-78
2024/01/21 00:44:11;;;;;;;11.70;6.70;;;;;;;2.95;44.33;102503.44;5058791;28;20052;-78
2024/01/21 00:47:05;;;;;;;11.45;6.00;;;;;;;3.08;44.18;102500.63;5055077;28;20692;-78
2024/01/21 00:50:00;;;;;;;12.23;6.20;;;;;;;3.37;43.72;102491.84;5060324;28;20048;-78
2024/01/21 00:52:55;;;;;;;13.10;6.50;;;;;;;3.35;43.05;102482.38;5058643;28;20048;-78
2024/01/21 00:55:49;;;;;;;14.35;7.75;;;;;;;3.18;43.53;102487.50;5055887;28;20043;-78
2024/01/21 00:58:41;;;;;;;19.33;8.27;;;;;;;3.05;43.38;102494.91;5059532;28;20063;-78
2024/01/21 01:01:37;;;;;;;13.77;7.32;;;;;;;2.99;45.06;102507.34;5056098;28;20048;-78
2024/01/21 01:04:29;;;;;;;8.73;5.35;;;;;;;2.91;44.72;102510.28;5059997;28;20055;-78
2024/01/21 01:07:24;;;;;;;9.70;5.97;;;;;;;2.89;44.78;102512.41;5055495;28;20406;-79
2024/01/21 01:10:19;;;;;;;17.75;8.65;;;;;;;2.95;45.02;102515.00;5061117;28;20131;-79
2024/01/21 01:13:13;;;;;;;21.88;11.45;;;;;;;2.72;46.80;102505.91;5059328;28;20044;-78
2024/01/21 01:16:08;;;;;;;13.80;6.53;;;;;;;2.85;44.35;102492.34;5055592;28;20556;-78
2024/01/21 01:19:02;;;;;;;8.48;5.68;;;;;;;2.84;45.00;102507.69;5056503;28;20048;-79
2024/01/21 01:21:55;;;;;;;12.27;4.82;;;;;;;2.56;46.67;102513.47;5060280;28;20052;-78
2024/01/21 01:24:49;;;;;;;11.90;5.88;;;;;;;2.76;45.56;102507.13;5057077;28;20051;-78
2024/01/21 01:27:44;;;;;;;6.97;4.32;;;;;;;2.65;45.63;102505.97;5060012;28;20075;-78
2024/01/21 01:30:39;;;;;;;11.05;6.05;;;;;;;2.86;43.85;102512.81;5057227;28;20111;-78
2024/01/21 01:33:33;;;;;;;7.93;5.47;;;;;;;2.48;45.63;102508.38;5054758;28;20048;-78
2024/01/21 01:36:27;;;;;;;17.95;5.43;;;;;;;2.43;46.56;102510.88;5056230;28;20120;-79
2024/01/21 01:39:22;;;;;;;6.45;3.45;;;;;;;2.70;45.23;102503.44;5055476;28;20052;-79
2024/01/21 01:42:17;;;;;;;7.90;4.20;;;;;;;2.71;44.72;102496.19;5059275;28;20056;-78
2024/01/21 01:45:12;;;;;;;7.33;3.40;;;;;;;2.58;44.92;102506.03;5056929;28;20528;-79
2024/01/21 01:48:07;;;;;;;7.15;4.72;;;;;;;2.47;44.68;102497.84;5055710;28;20278;-78
2024/01/21 01:51:00;;;;;;;9.63;4.75;;;;;;;2.75;44.55;102490.16;5057415;28;20052;-78
2024/01/21 01:53:55;;;;;;;16.58;7.05;;;;;;;2.91;43.88;102494.16;5046803;28;20111;-78
2024/01/21 01:56:53;;;;;;;8.60;5.10;;;;;;;2.74;44.49;102491.25;5054957;28;20095;-79
2024/01/21 01:59:48;;;;;;;8.98;4.95;;;;;;;2.62;45.37;102476.88;5062425;28;20055;-78
2024/01/21 02:02:44;;;;;;;11.23;5.72;;;;;;;2.67;45.17;102473.53;5054775;28;20049;-78
2024/01/21 02:05:39;;;;;;;8.75;4.95;;;;;;;2.50;44.84;102474.06;5057417;28;20150;-77
2024/01/21 02:08:33;;;;;;;9.15;3.70;;;;;;;2.49;44.85;102474.25;5054864;28;20064;-79
2024/01/21 02:11:28;;;;;;;10.52;4.00;;;;;;;2.49;45.37;102468.91;5059800;28;20052;-77
2024/01/21 02:14:23;;;;;;;8.77;4.65;;;;;;;2.26;45.98;102469.50;5060817;28;20048;-78
2024/01/21 02:17:17;;;;;;;5.45;3.72;;;;;;;2.39;46.58;102469.38;5059469;28;20048;-78
2024/01/21 02:20:12;;;;;;;6.68;4.18;;;;;;;2.45;44.70;102465.84;5065542;28;20051;-77
2024/01/21 02:23:06;;;;;;;5.63;3.30;;;;;;;2.38;44.58;102462.41;5065381;28;20063;-78
2024/01/21 02:26:01;;;;;;;12.40;4.57;;;;;;;2.40;44.92;102457.63;5076260;28;20055;-78
2024/01/21 02:28:53;;;;;;;7.93;3.85;;;;;;;2.35;44.82;102457.44;5081620;28;20051;-79
2024/01/21 02:31:48;;;;;;;6.43;4.18;;;;;;;2.51;45.09;102450.72;5078636;28;20044;-78
2024/01/21 02:34:43;;;;;;;8.07;4.68;;;;;;;2.45;45.54;102451.59;5084469;28;20040;-79
2024/01/21 02:37:37;;;;;;;7.88;4.68;;;;;;;2.38;45.33;102457.03;5079566;28;20044;-79
2024/01/21 02:40:32;;;;;;;11.15;3.47;;;;;;;2.27;45.83;102455.03;5083016;28;20512;-78
2024/01/21 02:43:27;;;;;;;4.33;2.70;;;;;;;2.13;46.19;102454.28;5084473;28;20063;-78
2024/01/21 02:46:22;;;;;;;14.25;3.75;;;;;;;2.20;45.72;102456.09;5079882;28;20048;-78
2024/01/21 02:49:16;;;;;;;7.40;4.25;;;;;;;2.27;45.35;102460.41;5081540;28;20051;-78
2024/01/21 02:52:11;;;;;;;10.77;4.18;;;;;;;2.30;44.95;102457.28;5079436;28;20055;-77
2024/01/21 02:55:05;;;;;;;9.57;4.03;;;;;;;2.15;45.80;102460.25;5082268;28;20047;-77
2024/01/21 02:58:00;;;;;;;8.32;4.78;;;;;;;1.97;47.38;102456.69;5079275;28;20060;-78
2024/01/21 03:00:54;;;;;;;5.72;3.38;;;;;;;2.14;46.34;102449.75;5078312;28;20052;-78
2024/01/21 03:03:54;;;;;;;6.72;3.60;;;;;;;2.15;46.27;102446.84;5080860;28;20044;-78
2024/01/21 03:06:49;;;;;;;8.27;4.25;;;;;;;2.12;44.91;102451.84;5078098;28;20054;-77
2024/01/21 03:09:41;;;;;;;8.02;3.70;;;;;;;2.37;45.07;102455.38;5082166;28;20047;-77
2024/01/21 03:12:35;;;;;;;6.35;3.78;;;;;;;2.01;46.46;102449.84;5080853;28;20035;-77
2024/01/21 03:15:30;;;;;;;5.57;2.42;;;;;;;2.11;45.19;102450.19;5077948;28;20047;-78
2024/01/21 03:18:25;;;;;;;6.13;3.17;;;;;;;2.32;44.92;102449.00;5084019;28;20056;-78
2024/01/21 03:21:17;;;;;;;8.02;3.15;;;;;;;2.33;44.18;102447.97;5079519;28;20528;-78
2024/01/21 03:24:09;;;;;;;12.85;5.32;;;;;;;2.16;44.72;102445.00;5081578;28;20047;-78
2024/01/21 03:27:03;;;;;;;7.38;3.72;;;;;;;2.08;44.08;102439.91;5077346;28;20044;-77
2024/01/21 03:29:58;;;;;;;4.47;2.72;;;;;;;2.05;44.01;102446.50;5083409;28;20527;-78
2024/01/21 03:32:53;;;;;;;6.82;3.30;;;;;;;2.00;45.97;102445.50;5081346;28;20048;-79
2024/01/21 03:35:47;;;;;;;7.60;3.53;;;;;;;1.87;47.12;102434.88;5078287;28;20675;-78
2024/01/21 03:38:37;;;;;;;5.65;2.40;;;;;;;1.74;46.22;102435.75;5082257;28;20040;-77
2024/01/21 03:41:32;;;;;;;6.90;3.28;;;;;;;1.82;46.71;102446.25;5080231;28;20047;-78
2024/01/21 03:44:24;;;;;;;5.70;2.33;;;;;;;1.99;45.95;102438.50;5076611;28;20071;-78
2024/01/21 03:47:19;;;;;;;6.22;2.78;;;;;;;2.03;44.67;102434.34;5082015;28;20044;-80
2024/01/21 03:50:13;;;;;;;4.10;2.67;;;;;;;2.26;44.19;102428.41;5079347;28;20071;-78
2024/01/21 03:53:08;;;;;;;5.07;2.75;;;;;;;2.18;44.47;102424.16;5075663;28;20055;-77
2024/01/21 03:56:02;;;;;;;4.43;2.50;;;;;;;1.79;45.47;102445.81;5080490;28;20043;-77
2024/01/21 03:58:57;;;;;;;3.35;2.05;;;;;;;2.13;43.32;102432.81;5078387;28;20052;-78
2024/01/21 04:01:49;;;;;;;8.00;2.95;;;;;;;1.81;43.90;102433.03;5081391;28;20145;-78
2024/01/21 04:04:43;;;;;;;10.02;3.50;;;;;;;1.55;45.92;102442.03;5066484;28;20072;-77
2024/01/21 04:07:38;;;;;;;5.30;2.78;;;;;;;1.79;46.09;102446.66;5055778;28;20039;-77
2024/01/21 04:10:30;;;;;;;4.97;3.03;;;;;;;1.93;45.48;102442.06;5080417;28;20047;-77
2024/01/21 04:13:24;;;;;;;5.78;2.40;;;;;;;1.98;45.59;102436.88;5083292;28;20044;-78
2024/01/21 04:16:19;;;;;;;5.28;2.60;;;;;;;2.06;44.67;102445.47;5078356;28;20055;-77
2024/01/21 04:19:13;;;;;;;4.25;2.35;;;;;;;1.83;45.54;102442.50;5078980;28;20048;-79
2024/01/21 04:22:08;;;;;;;4.70;2.67;;;;;;;1.88;44.71;102434.63;5082010;28;20044;-77
2024/01/21 04:25:03;;;;;;;3.72;2.50;;;;;;;1.90;45.30;102435.25;5080637;28;20047;-77
2024/01/21 04:27:57;;;;;;;4.03;2.45;;;;;;;1.82;46.04;102434.69;5078541;28;20051;-78
2024/01/21 04:30:52;;;;;;;4.90;2.17;;;;;;;1.63;45.73;102434.56;5082629;28;20048;-78
2024/01/21 04:33:47;;;;;;;4.03;2.33;;;;;;;1.76;44.49;102438.22;5078918;28;20052;-77
2024/01/21 04:36:42;;;;;;;3.58;2.00;;;;;;;1.89;43.48;102430.09;5076016;28;20051;-78
2024/01/21 04:39:37;;;;;;;4.45;2.67;;;;;;;1.97;43.38;102435.22;5082761;28;20114;-77
2024/01/21 04:42:31;;;;;;;3.78;2.30;;;;;;;1.77;43.49;102438.00;5078665;28;20039;-77
2024/01/21 04:45:25;;;;;;;5.28;3.05;;;;;;;1.78;43.14;102446.88;5081128;28;20048;-78
2024/01/21 04:48:20;;;;;;;5.65;3.67;;;;;;;1.77;43.25;102442.56;5079599;28;20047;-78
2024/01/21 04:51:14;;;;;;;7.72;3.30;;;;;;;1.66;45.23;102444.03;5076902;28;20051;-78
2024/01/21 04:54:09;;;;;;;7.22;2.67;;;;;;;1.75;46.49;102439.25;5072894;28;20525;-77
2024/01/21 04:57:04;;;;;;;6.25;3.20;;;;;;;1.41;45.60;102441.25;5057205;28;20051;-78
2024/01/21 04:59:58;;;;;;;4.50;2.40;;;;;;;1.75;43.77;102447.28;5063698;28;20044;-78
2024/01/21 05:02:53;;;;;;;5.22;2.85;;;;;;;1.66;44.76;102452.91;5059303;28;20044;-78
2024/01/21 05:05:47;;;;;;;2.53;2.00;;;;;;;1.63;44.14;102465.91;5056309;28;20056;-78
2024/01/21 05:08:42;;;;;;;4.03;3.67;;;;;;;1.69;43.52;102463.19;5060459;28;20060;-78
2024/01/21 05:11:37;;;;;;;4.60;2.80;;;;;;;1.38;45.69;102451.56;5058876;28;20048;-77
2024/01/21 05:14:32;;;;;;;5.80;2.90;;;;;;;1.36;47.35;102449.13;5060225;28;20051;-78
2024/01/21 05:17:24;;;;;;;4.40;2.90;;;;;;;1.22;47.80;102451.00;5058404;28;20044;-78
2024/01/21 05:20:18;;;;;;;10.57;3.60;;;;;;;1.13;47.07;102446.06;5054791;28;20060;-77
2024/01/21 05:23:13;;;;;;;12.80;6.15;;;;;;;1.23;46.51;102427.72;5057697;28;20048;-78
2024/01/21 05:26:10;;;;;;;12.98;6.22;;;;;;;1.49;45.08;102443.69;5053059;28;20048;-75
2024/01/21 05:29:04;;;;;;;12.80;5.93;;;;;;;1.66;44.78;102436.81;5060254;28;20040;-75
2024/01/21 05:31:59;;;;;;;8.27;4.25;;;;;;;1.73;45.89;102448.31;5055015;28;20044;-76
2024/01/21 05:34:54;;;;;;;8.98;4.88;;;;;;;1.53;44.94;102436.03;5053030;28;20044;-77
2024/01/21 05:37:48;;;;;;;8.45;4.43;;;;;;;1.57;44.79;102432.75;5063478;28;20047;-78
2024/01/21 05:40:43;;;;;;;13.68;6.28;;;;;;;1.68;44.81;102442.78;5072930;28;20036;-78
2024/01/21 05:43:37;;;;;;;10.82;5.10;;;;;;;1.52;44.46;102442.47;5080829;28;20048;-78
2024/01/21 05:46:32;;;;;;;14.00;5.87;;;;;;;1.52;44.19;102450.50;5073016;28;20047;-76
2024/01/21 05:49:27;;;;;;;21.85;11.35;;;;;;;1.48;44.66;102446.59;5078327;28;20520;-77
2024/01/21 05:52:19;;;;;;;14.00;7.00;;;;;;;1.35;45.43;102454.69;5080805;28;20059;-79
2024/01/21 05:55:13;;;;;;;12.13;6.47;;;;;;;1.43;45.78;102457.94;5077509;28;20043;-78
2024/01/21 05:58:08;;;;;;;11.15;6.25;;;;;;;1.35;46.57;102449.31;5067490;28;20045;-78
2024/01/21 06:01:02;;;;;;;5.43;3.78;;;;;;;1.54;45.14;102464.50;5065899;28;20044;-79
2024/01/21 06:03:57;;;;;;;7.00;4.32;;;;;;;1.70;44.08;102454.13;5074107;28;20052;-79
2024/01/21 06:06:52;;;;;;;6.50;3.63;;;;;;;1.74;44.70;102462.56;5080285;28;20064;-79
2024/01/21 06:09:46;;;;;;;8.40;3.28;;;;;;;1.44;46.94;102454.22;5075852;28;20044;-78
2024/01/21 06:12:38;;;;;;;9.48;4.90;;;;;;;1.28;46.04;102465.41;5058029;28;20052;-78
2024/01/21 06:15:30;;;;;;;19.65;8.10;;;;;;;1.28;46.62;102460.06;5062642;28;20047;-78
2024/01/21 06:18:25;;;;;;;23.95;11.20;;;;;;;1.37;46.26;102466.03;5070675;28;20118;-78
2024/01/21 06:21:19;;;;;;;22.13;9.52;;;;;;;1.06;46.64;102464.03;5061149;28;20418;-77
2024/01/21 06:24:17;;;;;;;9.38;4.93;;;;;;;1.12;47.17;102457.81;5075731;28;20048;-78
2024/01/21 06:27:11;;;;;;;9.70;4.93;;;;;;;1.16;46.51;102445.69;5070587;28;20044;-78
2024/01/21 06:30:22;;;;;;;6.47;3.00;;;;;;;1.14;47.33;102461.13;5070759;28;20055;-76
2024/01/21 06:33:17;;;;;;;10.63;3.40;;;;;;;1.14;47.11;102469.16;5060944;28;20044;-76
2024/01/21 06:36:11;;;;;;;7.22;3.38;;;;;;;1.23;46.06;102474.09;5058903;28;20576;-76
2024/01/21 06:39:06;;;;;;;8.95;2.95;;;;;;;1.03;47.14;102464.44;5070852;28;20048;-77
2024/01/21 06:41:59;;;;;;;8.30;3.17;;;;;;;1.02;46.37;102468.13;5061586;28;20044;-76
2024/01/21 06:44:53;;;;;;;7.40;3.42;;;;;;;0.96;47.49;102475.19;5057131;28;20048;-76
2024/01/21 06:47:45;;;;;;;5.40;3.35;;;;;;;0.99;47.85;102472.06;5073872;28;20052;-79
2024/01/21 06:50:38;;;;;;;8.07;2.85;;;;;;;1.13;46.34;102467.50;5073607;28;20048;-78
2024/01/21 06:53:32;;;;;;;26.88;17.90;;;;;;;1.22;46.45;102476.97;5079915;28;20055;-76
2024/01/21 06:56:27;;;;;;;14.50;7.28;;;;;;;1.30;46.08;102468.72;5076827;28;20055;-77
2024/01/21 06:59:19;;;;;;;6.05;3.35;;;;;;;1.36;45.95;102473.25;5078482;28;20044;-78
2024/01/21 07:02:11;;;;;;;8.52;2.85;;;;;;;1.11;46.90;102474.94;5059648;28;20048;-78
2024/01/21 07:05:06;;;;;;;6.07;2.70;;;;;;;1.37;45.59;102471.38;5063144;28;20048;-76
2024/01/21 07:07:59;;;;;;;;;;;;;;;1.28;46.08;102471.59;5056645;28;20044;-76
2024/01/21 07:10:51;;;;;;;6.18;3.95;;;;;;;1.27;46.15;102474.47;5071166;28;19917;-78
2024/01/21 07:13:45;;;;;;;7.65;3.83;;;;;;;1.36;46.13;102462.53;5083771;28;20059;-78
2024/01/21 07:16:38;;;;;;;6.25;3.90;;;;;;;1.37;45.95;102474.88;5079014;28;20055;-78
2024/01/21 07:19:33;;;;;;;7.35;3.03;;;;;;;1.38;46.27;102487.22;5084013;28;20051;-78
2024/01/21 07:22:27;;;;;;;7.63;3.08;;;;;;;1.39;46.44;102488.88;5080848;28;20039;-77
2024/01/21 07:25:22;;;;;;;4.97;2.42;;;;;;;1.51;46.70;102475.66;5077939;28;20068;-79
2024/01/21 07:28:14;;;;;;;9.43;2.40;;;;;;;1.57;45.48;102470.28;5083887;28;20043;-79
2024/01/21 07:31:08;;;;;;;5.38;2.90;;;;;;;1.79;44.61;102480.69;5073742;28;20051;-78
2024/01/21 07:34:03;;;;;;;9.43;2.40;;;;;;;1.97;44.13;102483.50;5064003;28;20040;-78
2024/01/21 07:36:58;;;;;;;8.02;2.40;;;;;;;1.88;45.85;102487.47;5057356;28;20048;-78
2024/01/21 07:39:52;;;;;;;4.70;2.47;;;;;;;1.58;46.61;102481.81;5055647;28;20060;-81
2024/01/21 07:42:47;;;;;;;4.57;2.97;;;;;;;1.02;45.91;102486.88;5060683;28;20051;-81
2024/01/21 07:45:41;;;;;;;5.68;2.40;;;;;;;0.73;48.56;102488.16;5073128;28;20059;-80
2024/01/21 07:48:36;;;;;;;4.07;2.75;;;;;;;0.56;48.29;102493.09;5078071;28;20055;-80
2024/01/21 07:51:33;;;;;;;6.78;2.90;;;;;;;0.40;49.99;102485.47;5074320;28;20067;-79
2024/01/21 07:54:28;;;;;;;7.63;3.13;;;;;;;0.42;50.35;102483.41;5060462;28;20048;-80
2024/01/21 07:57:20;;;;;;;6.82;2.97;;;;;;;0.37;48.75;102469.81;5068702;28;20402;-79
2024/01/21 08:00:14;;;;;;;9.23;3.70;;;;;;;0.48;48.93;102471.91;5062325;28;20052;-80
2024/01/21 08:03:09;;;;;;;4.95;2.75;;;;;;;0.53;48.55;102477.44;5077425;28;20043;-80
2024/01/21 08:06:04;;;;;;;8.60;3.75;;;;;;;0.60;49.60;102477.47;5067888;28;20044;-79
2024/01/21 08:08:59;;;;;;;4.75;2.70;;;;;;;0.68;50.24;102470.03;5062632;28;20055;-80
2024/01/21 08:11:53;;;;;;;6.70;2.95;;;;;;;0.79;51.11;102471.28;5062487;28;20052;-80
2024/01/21 08:14:43;;;;;;;27.25;15.43;;;;;;;0.84;52.06;102479.50;5061674;28;20039;-80
2024/01/21 08:17:39;;;;;;;14.48;4.22;;;;;;;0.93;52.92;102477.44;5055893;28;20047;-80
2024/01/21 08:20:33;;;;;;;10.60;4.30;;;;;;;0.98;53.92;102475.78;5060025;28;20040;-80
2024/01/21 08:23:25;;;;;;;9.63;4.55;;;;;;;1.07;54.68;102473.69;5059903;28;20043;-80
2024/01/21 08:26:21;;;;;;;9.60;5.22;;;;;;;1.16;54.70;102472.47;5064130;28;20039;-80
2024/01/21 08:29:10;;;;;;;7.20;4.57;;;;;;;1.24;54.53;102480.25;5062202;28;20047;-80
2024/01/21 08:32:03;;;;;;;10.05;4.82;;;;;;;1.29;54.07;102483.97;5060354;28;20500;-79
2024/01/21 08:34:59;;;;;;;10.98;4.53;;;;;;;1.34;54.38;102480.66;5062042;28;20374;-78
2024/01/21 08:37:54;;;;;;;6.63;3.58;;;;;;;1.42;53.89;102472.41;5061938;28;20524;-78
2024/01/21 08:40:49;;;;;;;8.25;4.65;;;;;;;1.51;52.93;102487.22;5066940;28;20059;-79
2024/01/21 08:43:43;;;;;;;10.13;4.30;;;;;;;1.60;52.31;102499.34;5063988;28;20043;-80
2024/01/21 08:46:35;;;;;;;6.60;3.17;;;;;;;1.75;49.82;102491.03;5065592;28;20043;-79
2024/01/21 08:49:30;;;;;;;4.22;2.75;;;;;;;1.88;45.58;102493.63;5070156;28;20048;-79
2024/01/21 08:52:24;;;;;;;6.95;2.28;;;;;;;1.87;45.77;102499.22;5061528;28;20052;-79
2024/01/21 08:55:14;;;;;;;6.20;4.50;;;;;;;1.99;45.24;102501.00;5067727;28;20521;-80
2024/01/21 08:58:12;;;;;;;5.05;2.92;;;;;;;2.14;43.98;102500.72;5067088;28;20048;-79
2024/01/21 09:01:10;;;;;;;5.25;2.65;;;;;;;2.26;44.24;102498.19;5053851;28;20039;-79
2024/01/21 09:04:04;;;;;;;3.30;1.92;;;;;;;2.44;43.14;102512.50;5055670;28;20044;-79
2024/01/21 09:06:59;;;;;;;3.25;1.80;;;;;;;2.51;42.12;102509.78;5064375;28;20067;-79
2024/01/21 09:09:51;;;;;;;2.83;1.70;;;;;;;2.56;41.74;102513.47;5071932;28;20130;-79
2024/01/21 09:12:46;;;;;;;3.35;1.75;;;;;;;2.50;40.61;102519.69;5060237;28;20614;-78
2024/01/21 09:15:41;;;;;;;5.70;2.58;;;;;;;2.55;39.67;102517.19;5052115;28;20039;-78
2024/01/21 09:18:33;;;;;;;7.18;2.03;;;;;;;2.80;40.03;102508.31;5058852;28;20056;-81
2024/01/21 09:21:27;;;;;;;3.95;2.38;;;;;;;2.86;41.00;102507.44;5058902;28;20048;-78
2024/01/21 09:24:22;;;;;;;6.68;2.40;;;;;;;2.94;40.31;102516.06;5050881;28;20048;-78
2024/01/21 09:27:16;;;;;;;7.60;1.98;;;;;;;3.16;39.44;102524.53;5055962;28;20048;-81
2024/01/21 09:30:09;;;;;;;2.97;1.73;;;;;;;3.30;40.98;102526.03;5067300;28;20520;-77
2024/01/21 09:33:05;;;;;;;2.08;1.60;;;;;;;3.25;40.83;102525.88;5055979;28;20044;-79
2024/01/21 09:35:57;;;;;;;2.70;1.58;;;;;;;3.33;39.50;102528.28;5054239;28;20048;-81
2024/01/21 09:38:54;;;;;;;2.95;2.00;;;;;;;3.63;40.43;102532.94;5059184;28;20067;-82
2024/01/21 09:41:51;;;;;;;5.15;2.75;;;;;;;4.03;41.82;102527.91;5064347;28;20410;-79
2024/01/21 09:44:46;;;;;;;4.18;2.45;;;;;;;4.04;40.19;102526.84;5052598;28;20056;-81
2024/01/21 09:47:44;;;;;;;4.47;1.70;;;;;;;4.16;41.33;102533.94;5068119;28;20047;-78
2024/01/21 09:50:36;;;;;;;2.35;1.58;;;;;;;4.27;40.75;102537.72;5059873;28;20544;-82
2024/01/21 09:53:30;;;;;;;3.70;2.20;;;;;;;4.45;41.07;102524.22;5072825;28;20048;-79
2024/01/21 09:56:23;;;;;;;5.35;2.45;;;;;;;4.64;39.85;102527.63;5074327;28;20044;-81
2024/01/21 09:59:16;;;;;;;2.97;1.98;;;;;;;4.97;39.03;102524.44;5069389;28;20525;-80
2024/01/21 10:02:15;;;;;;;4.35;2.63;;;;;;;5.06;39.66;102520.31;5072996;28;20056;-81
2024/01/21 10:05:07;;;;;;;3.22;2.05;;;;;;;5.94;39.99;102507.41;5061530;28;20048;-77
2024/01/21 10:08:02;;;;;;;3.67;1.98;;;;;;;12.73;29.01;102520.50;5051087;28;20406;-77
2024/01/21 10:10:56;;;;;;;4.90;2.22;;;;;;;18.36;21.47;102520.13;5054231;28;20044;-78
2024/01/21 10:13:51;;;;;;;4.50;2.50;;;;;;;21.57;17.59;102516.69;5051258;28;20052;-78
2024/01/21 10:16:49;;;;;;;4.78;2.63;;;;;;;20.95;17.27;102506.66;5053127;28;20044;-81
2024/01/21 10:19:46;;;;;;;5.28;3.20;;;;;;;21.40;17.61;102514.16;5053527;28;20520;-78
2024/01/21 10:22:40;;;;;;;10.55;3.22;;;;;;;20.88;16.87;102520.25;5050743;28;20044;-78
2024/01/21 10:25:40;;;;;;;5.63;2.25;;;;;;;18.09;20.41;102518.50;5053862;28;20049;-78
2024/01/21 10:28:37;;;;;;;4.55;2.20;;;;;;;19.81;17.95;102512.63;5051974;28;20410;-80
2024/01/21 10:31:27;;;;;;;3.78;1.98;;;;;;;15.93;21.87;102510.06;5076045;28;20059;-79
2024/01/21 10:34:21;;;;;;;11.57;2.58;;;;;;;20.58;18.84;102519.56;5078608;28;20068;-79
2024/01/21 10:37:17;;;;;;;7.32;2.88;;;;;;;19.17;19.42;102521.03;5056348;28;20056;-80
2024/01/21 10:40:13;;;;;;;4.97;2.90;;;;;;;16.67;20.96;102510.56;5062442;28;20044;-80
2024/01/21 10:43:05;;;;;;;;;;;;;;;19.13;19.56;102510.97;5063069;28;20520;-81
2024/01/21 10:45:58;;;;;;;4.15;2.78;;;;;;;21.80;17.70;102515.06;5072458;28;20309;-80
2024/01/21 10:48:50;;;;;;;8.82;3.25;;;;;;;19.38;19.00;102520.31;5068982;28;20417;-82
2024/01/21 10:51:46;;;;;;;4.45;2.58;;;;;;;15.05;23.50;102500.28;5076953;28;20043;-82
2024/01/21 10:54:40;;;;;;;5.68;3.00;;;;;;;14.16;25.17;102513.19;5077213;28;20040;-82
2024/01/21 10:57:34;;;;;;;4.50;2.67;;;;;;;13.08;26.66;102520.19;5068321;28;20119;-81
2024/01/21 11:00:26;;;;;;;6.43;3.08;;;;;;;13.31;27.36;102507.66;5072461;28;20052;-81
2024/01/21 11:03:36;;;;;;;7.88;2.63;;;;;;;12.49;28.54;102505.94;5063242;28;20517;-83
2024/01/21 11:06:30;;;;;;;5.35;3.08;;;;;;;11.99;29.33;102505.97;5062614;28;20056;-81
2024/01/21 11:09:28;;;;;;;5.70;2.80;;;;;;;11.97;30.03;102505.44;5075444;28;20064;-81
2024/01/21 11:12:23;;;;;;;7.45;3.25;;;;;;;11.57;30.22;102513.75;5070665;28;20122;-81
2024/01/21 11:15:34;;;;;;;4.97;2.20;;;;;;;11.67;30.89;102505.56;5069787;28;20043;-81
2024/01/21 11:18:28;;;;;;;5.95;2.72;;;;;;;11.43;30.27;102505.34;5082798;28;20052;-80
2024/01/21 11:21:25;;;;;;;6.13;3.00;;;;;;;11.28;31.77;102493.66;5065729;28;20044;-80
2024/01/21 11:24:19;;;;;;;5.28;2.40;;;;;;;11.29;31.93;102498.03;5060913;28;20294;-80
2024/01/21 11:27:28;;;;;;;4.70;2.10;;;;;;;11.71;31.24;102484.81;5066295;28;20052;-80
2024/01/21 11:30:26;;;;;;;4.95;3.00;;;;;;;11.70;30.81;102477.72;5070937;28;20051;-81
2024/01/21 11:33:22;;;;;;;5.03;2.90;;;;;;;11.89;30.75;102470.56;5072858;28;20112;-80
2024/01/21 11:36:12;;;;;;;;;;;;;;;12.08;30.28;102478.94;5069182;28;20409;-80
2024/01/21 11:39:02;;;;;;;5.38;2.92;;;;;;;11.79;31.00;102477.97;5071669;28;19913;-81
2024/01/21 11:41:56;;;;;;;7.18;3.88;;;;;;;11.92;31.14;102477.38;5065878;28;20524;-80
2024/01/21 11:44:51;;;;;;;6.63;3.20;;;;;;;12.00;29.82;102476.78;5078957;28;20047;-79
2024/01/21 11:47:46;;;;;;;4.87;2.67;;;;;;;12.11;29.45;102474.81;5055810;28;20283;-81
2024/01/21 11:50:41;;;;;;;1.80;1.40;;;;;;;12.23;29.11;102473.38;5068157;28;20047;-80
2024/01/21 11:53:35;;;;;;;4.32;2.55;;;;;;;12.44;29.08;102466.66;5076496;28;20039;-79
2024/01/21 11:56:27;;;;;;;3.57;2.10;;;;;;;12.64;29.18;102471.16;5073701;28;20412;-80
2024/01/21 11:59:22;;;;;;;3.67;2.05;;;;;;;12.59;29.00;102464.94;5081220;28;20274;-79
2024/01/21 12:02:21;;;;;;;14.63;3.40;;;;;;;12.63;29.28;102468.72;5081222;28;20420;-79
2024/01/21 12:05:13;;;;;;;8.07;2.13;;;;;;;12.41;29.11;102463.69;5078301;28;20048;-80
2024/01/21 12:08:09;;;;;;;3.97;1.70;;;;;;;12.32;27.95;102462.69;5076815;28;20043;-79
2024/01/21 12:11:03;;;;;;;6.13;2.83;;;;;;;12.56;28.11;102468.22;5076417;28;20043;-79
2024/01/21 12:13:58;;;;;;;2.03;1.50;;;;;;;12.34;25.74;102464.00;5069084;28;20052;-79
2024/01/21 12:16:54;;;;;;;2.93;1.20;;;;;;;12.03;24.84;102465.34;5062271;28;20056;-82
2024/01/21 12:19:44;;;;;;;;;;;;;;;11.97;25.28;102464.53;5059978;28;20043;-82
2024/01/21 12:22:45;;;;;;;1.20;0.90;;;;;;;11.72;25.13;102470.09;5058448;28;19916;-81
2024/01/21 12:25:42;;;;;;;2.78;1.20;;;;;;;11.99;26.15;102456.06;5066220;28;20044;-79
2024/01/21 12:28:34;;;;;;;6.70;1.08;;;;;;;12.05;25.98;102446.75;5061390;28;20056;-81
2024/01/21 12:31:38;;;;;;;3.08;1.02;;;;;;;12.10;26.25;102438.56;5061659;28;20071;-81
2024/01/21 12:34:30;;;;;;;1.20;0.65;;;;;;;11.93;25.46;102435.41;5070016;28;20155;-82
2024/01/21 12:37:25;;;;;;;1.73;0.60;;;;;;;11.80;26.02;102439.56;5061995;28;20787;-81
2024/01/21 12:40:14;;;;;;;2.58;0.80;;;;;;;11.90;26.37;102427.78;5061792;28;20072;-82
2024/01/21 12:43:09;;;;;;;1.45;0.75;;;;;;;11.74;26.11;102426.22;5073027;28;20043;-79
2024/01/21 12:46:03;;;;;;;1.55;1.10;;;;;;;11.43;25.90;102420.06;5067890;28;20044;-79
2024/01/21 12:48:58;;;;;;;2.22;0.80;;;;;;;11.55;26.60;102417.84;5064673;28;20044;-81
2024/01/21 12:51:50;;;;;;;0.85;0.60;;;;;;;11.65;27.47;102417.81;5072182;28;20059;-80
2024/01/21 12:54:44;;;;;;;1.10;0.70;;;;;;;11.54;27.81;102414.31;5054950;28;20044;-79
2024/01/21 12:57:39;;;;;;;2.58;0.60;;;;;;;11.76;28.04;102400.34;5074627;28;20048;-76
2024/01/21 13:00:31;;;;;;;2.67;1.60;;;;;;;11.61;28.03;102407.75;5060353;28;20060;-80
2024/01/21 13:03:26;;;;;;;3.23;1.67;;;;;;;11.35;27.54;102404.31;5075277;28;20051;-78
2024/01/21 13:06:20;;;;;;;2.50;1.17;;;;;;;11.15;28.54;102402.50;5062254;28;20648;-79
2024/01/21 13:09:18;;;;;;;5.40;0.73;;;;;;;11.11;27.88;102401.44;5069623;28;20051;-78
2024/01/21 13:12:12;;;;;;;3.20;1.35;;;;;;;11.37;27.99;102396.69;5061975;28;20286;-78
2024/01/21 13:15:08;;;;;;;4.38;0.98;;;;;;;11.28;27.18;102395.63;5062052;28;20056;-78
2024/01/21 13:18:03;;;;;;;1.27;0.98;;;;;;;11.29;26.90;102383.66;5071197;28;20047;-79
2024/01/21 13:20:57;;;;;;;1.13;0.60;;;;;;;11.13;28.22;102382.88;5073200;28;20044;-79
2024/01/21 13:23:52;;;;;;;2.20;1.00;;;;;;;11.09;28.86;102384.53;5062288;28;20055;-77
2024/01/21 13:26:51;;;;;;;0.73;0.47;;;;;;;11.27;27.85;102386.66;5056906;28;20043;-79
2024/01/21 13:32:55;;;;;;;5.72;0.90;;;;;;;10.95;27.79;102373.44;5064092;28;20047;-81
2024/01/21 13:35:48;;;;;;;1.75;1.15;;;;;;;10.82;28.33;102375.94;5074006;28;20536;-82
2024/01/21 13:38:38;;;;;;;2.95;1.10;;;;;;;10.92;28.19;102373.97;5067550;28;20047;-80